Time;durP1;ratioP1;P1;durP2;ratioP2;P2;SDS_P1;SDS_P2;PMS_P1;PMS_P2;Temp;Humidity;BMP_temperature;BMP_pressure;BME280_temperature;BME280_humidity;BME280_pressure;Samples;Min_cycle;Max_cycle;Signal;HPM_P1;HPM_P2
2022/05/20 00:02:28;;;;;;;;;;;;;;;17.14;39.74;100524.77;106552;1267;24256;-63
2022/05/20 00:04:59;;;;;;;;;;;;;;;17.13;39.93;100524.36;106198;1267;24550;-63
2022/05/20 00:07:29;;;;;;;;;;;;;;;17.10;39.91;100522.55;106645;1267;22520;-64
2022/05/20 00:09:59;;;;;;;;;;;;;;;17.08;39.85;100521.59;106201;1267;24231;-63
2022/05/20 00:12:28;;;;;;;;;;;;;;;17.05;40.01;100520.23;106208;1267;25496;-62
2022/05/20 00:14:59;;;;;;;;;;;;;;;17.02;40.09;100525.68;106163;1268;26458;-62
2022/05/20 00:17:29;;;;;;;;;;;;;;;16.97;40.05;100528.92;106065;1267;22725;-62
2022/05/20 00:19:59;;;;;;;;;;;;;;;16.93;40.38;100527.58;106215;1267;22513;-62
2022/05/20 00:22:28;;;;;;;;;;;;;;;16.87;40.43;100525.19;106254;1267;24712;-62
2022/05/20 00:27:45;;;;;;;;;;;;;;;16.76;40.66;100539.16;105966;1267;24429;-62
2022/05/20 00:30:15;;;;;;;;;;;;;;;16.69;40.85;100551.00;106336;1267;22772;-63
2022/05/20 00:32:45;;;;;;;;;;;;;;;16.64;40.84;100546.45;106346;1268;25146;-63
2022/05/20 00:35:15;;;;;;;;;;;;;;;16.60;41.01;100549.17;106313;1267;22608;-63
2022/05/20 00:37:45;;;;;;;;;;;;;;;16.56;41.03;100538.41;106388;1267;24453;-62
2022/05/20 00:40:16;;;;;;;;;;;;;;;16.52;41.28;100539.69;106187;1267;23336;-62
2022/05/20 00:42:46;;;;;;;;;;;;;;;16.48;41.35;100543.46;106135;1267;24247;-63
2022/05/20 00:45:16;;;;;;;;;;;;;;;16.44;41.72;100537.77;106357;1267;24297;-63
2022/05/20 00:47:46;;;;;;;;;;;;;;;16.40;41.58;100537.98;106199;1267;25059;-61
2022/05/20 00:50:17;;;;;;;;;;;;;;;16.36;41.70;100538.95;106168;1267;22598;-63
2022/05/20 00:52:49;;;;;;;;;;;;;;;16.32;42.04;100536.38;106110;1267;22528;-61
2022/05/20 00:55:21;;;;;;;;;;;;;;;16.27;41.90;100539.14;106317;1267;24418;-62
2022/05/20 00:57:52;;;;;;;;;;;;;;;16.22;42.07;100542.63;106207;1267;23171;-61
2022/05/20 01:00:24;;;;;;;;;;;;;;;16.16;42.11;100541.08;106322;1267;25235;-63
2022/05/20 01:02:55;;;;;;;;;;;;;;;16.10;42.29;100539.74;106163;1267;24340;-62
2022/05/20 01:05:28;;;;;;;;;;;;;;;16.05;42.58;100540.15;106117;1268;24352;-62
2022/05/20 01:07:59;;;;;;;;;;;;;;;16.00;42.61;100541.06;106161;1267;25337;-62
2022/05/20 01:10:29;;;;;;;;;;;;;;;15.94;42.77;100536.75;106331;1267;22775;-62
2022/05/20 01:13:00;;;;;;;;;;;;;;;15.87;43.03;100538.38;106283;1267;24355;-62
2022/05/20 01:15:30;;;;;;;;;;;;;;;15.81;42.96;100538.15;106174;1267;23212;-62
2022/05/20 01:18:00;;;;;;;;;;;;;;;15.76;43.23;100536.65;106196;1268;26599;-62
2022/05/20 01:20:31;;;;;;;;;;;;;;;15.70;43.25;100535.31;106491;1267;24272;-62
2022/05/20 01:23:07;;;;;;;;;;;;;;;15.65;43.47;100536.41;106347;1267;22541;-61
2022/05/20 01:25:38;;;;;;;;;;;;;;;15.61;43.67;100535.13;106433;1267;22538;-62
2022/05/20 01:28:07;;;;;;;;;;;;;;;15.55;43.75;100533.42;106462;1267;24215;-61
2022/05/20 01:30:40;;;;;;;;;;;;;;;15.51;43.88;100533.81;106381;1268;22538;-62
2022/05/20 01:33:10;;;;;;;;;;;;;;;15.45;43.95;100537.73;106276;1267;24228;-61
2022/05/20 01:35:41;;;;;;;;;;;;;;;15.40;44.25;100538.44;106074;1267;25295;-62
2022/05/20 01:38:12;;;;;;;;;;;;;;;15.35;44.19;100540.73;106386;1267;24533;-61
2022/05/20 01:40:45;;;;;;;;;;;;;;;15.29;44.32;100537.79;106261;1268;22525;-62
2022/05/20 01:43:24;;;;;;;;;;;;;;;15.25;44.61;100542.32;106388;1267;22507;-62
2022/05/20 01:45:58;;;;;;;;;;;;;;;15.18;44.71;100541.27;106314;1267;22528;-61
2022/05/20 01:48:32;;;;;;;;;;;;;;;15.13;44.71;100539.65;106359;1267;26540;-62
2022/05/20 01:51:04;;;;;;;;;;;;;;;15.08;44.92;100543.30;106088;1267;22572;-62
2022/05/20 01:53:39;;;;;;;;;;;;;;;15.02;44.91;100542.91;106462;1268;25230;-62
2022/05/20 01:56:11;;;;;;;;;;;;;;;14.99;44.98;100539.72;106174;1267;26507;-61
2022/05/20 01:58:44;;;;;;;;;;;;;;;14.92;45.42;100547.80;106152;1267;23512;-62
2022/05/20 02:01:15;;;;;;;;;;;;;;;14.84;45.27;100543.20;106276;1267;22593;-62
2022/05/20 02:03:47;;;;;;;;;;;;;;;14.76;45.56;100549.17;106271;1267;24274;-62
2022/05/20 02:06:20;;;;;;;;;;;;;;;14.69;45.50;100549.33;106331;1267;25488;-62
2022/05/20 02:08:53;;;;;;;;;;;;;;;14.65;45.86;100551.61;106102;1267;24435;-61
2022/05/20 02:11:25;;;;;;;;;;;;;;;14.58;45.98;100554.32;106248;1267;22516;-61
2022/05/20 02:13:57;;;;;;;;;;;;;;;14.54;46.19;100551.07;106333;1267;22512;-62
2022/05/20 02:16:29;;;;;;;;;;;;;;;14.52;46.33;100557.13;106288;1267;24240;-62
2022/05/20 02:19:01;;;;;;;;;;;;;;;14.50;46.56;100560.73;106036;1267;25179;-61
2022/05/20 02:21:32;;;;;;;;;;;;;;;14.47;46.45;100556.27;106159;1267;25305;-62
2022/05/20 02:24:05;;;;;;;;;;;;;;;14.44;46.89;100556.91;106150;1267;22520;-60
2022/05/20 02:26:39;;;;;;;;;;;;;;;14.41;46.92;100560.26;106157;1268;22531;-62
2022/05/20 02:29:12;;;;;;;;;;;;;;;14.39;47.12;100561.77;106232;1267;25298;-62
2022/05/20 02:31:47;;;;;;;;;;;;;;;14.36;47.36;100563.59;106149;1268;25238;-61
2022/05/20 02:34:17;;;;;;;;;;;;;;;14.33;47.64;100566.92;106048;1267;22518;-62
2022/05/20 02:36:47;;;;;;;;;;;;;;;14.31;47.50;100563.54;106121;1267;24778;-61
2022/05/20 02:39:16;;;;;;;;;;;;;;;14.31;47.72;100565.73;106191;1267;22531;-61
2022/05/20 02:41:46;;;;;;;;;;;;;;;14.31;47.62;100556.55;106125;1267;22509;-62
2022/05/20 02:44:17;;;;;;;;;;;;;;;14.33;47.89;100557.89;103141;1268;4124103;-62
2022/05/20 02:46:47;;;;;;;;;;;;;;;14.33;48.00;100550.17;106172;1267;22814;-60
2022/05/20 02:49:17;;;;;;;;;;;;;;;14.33;48.01;100556.10;106314;1267;25352;-61
2022/05/20 02:51:47;;;;;;;;;;;;;;;14.33;48.21;100553.56;106151;1268;24252;-62
2022/05/20 02:54:16;;;;;;;;;;;;;;;14.34;48.43;100554.83;106107;1268;22571;-61
2022/05/20 02:56:46;;;;;;;;;;;;;;;14.33;48.31;100557.69;106117;1268;25310;-60
2022/05/20 03:04:52;;;;;;;;;;;;;;;14.33;48.82;100554.83;106246;1268;22890;-61
2022/05/20 03:07:22;;;;;;;;;;;;;;;14.34;48.83;100558.39;106105;1267;22589;-60
2022/05/20 03:09:52;;;;;;;;;;;;;;;14.34;49.16;100564.48;106155;1268;22507;-60
2022/05/20 03:12:22;;;;;;;;;;;;;;;14.33;49.35;100566.88;106070;1268;22525;-62
2022/05/20 03:14:52;;;;;;;;;;;;;;;14.31;49.55;100570.59;106142;1268;22516;-61
2022/05/20 03:17:22;;;;;;;;;;;;;;;14.30;49.57;100574.86;106234;1266;24424;-62
2022/05/20 03:19:52;;;;;;;;;;;;;;;14.28;49.63;100578.14;106312;1269;23218;-61
2022/05/20 03:22:22;;;;;;;;;;;;;;;14.27;49.82;100584.46;106194;1268;22704;-60
2022/05/20 03:24:52;;;;;;;;;;;;;;;14.26;49.78;100578.21;106091;1268;22511;-62
2022/05/20 03:27:22;;;;;;;;;;;;;;;14.25;49.97;100582.09;106239;1268;22551;-61
2022/05/20 03:29:52;;;;;;;;;;;;;;;14.25;49.81;100579.70;106038;1268;24294;-61
2022/05/20 03:32:21;;;;;;;;;;;;;;;14.27;50.06;100585.13;106116;1267;22540;-62
2022/05/20 03:34:51;;;;;;;;;;;;;;;14.30;50.04;100590.58;106043;1268;25365;-62
2022/05/20 03:37:20;;;;;;;;;;;;;;;14.31;50.34;100586.72;106547;1258;79914;-75
2022/05/20 03:39:50;;;;;;;;;;;;;;;14.34;50.60;100587.77;106671;1269;23973;-75
2022/05/20 03:42:20;;;;;;;;;;;;;;;14.37;50.55;100589.27;106630;1269;25647;-74
2022/05/20 03:44:49;;;;;;;;;;;;;;;14.41;50.43;100589.58;106749;1268;22532;-73
2022/05/20 03:47:19;;;;;;;;;;;;;;;14.45;50.73;100585.05;106597;1269;22676;-73
2022/05/20 03:49:49;;;;;;;;;;;;;;;14.49;50.73;100591.73;106484;1270;22467;-74
2022/05/20 03:52:18;;;;;;;;;;;;;;;14.54;50.87;100596.42;106553;1269;24207;-75
2022/05/20 03:54:48;;;;;;;;;;;;;;;14.59;51.08;100598.83;106614;1269;22674;-73
2022/05/20 03:57:17;;;;;;;;;;;;;;;14.65;51.22;100596.92;106505;1269;23320;-73
2022/05/20 03:59:47;;;;;;;;;;;;;;;14.71;51.21;100597.21;106611;1270;22983;-74
2022/05/20 04:02:16;;;;;;;;;;;;;;;14.76;50.95;100595.17;106548;1269;22630;-74
2022/05/20 04:04:47;;;;;;;;;;;;;;;14.80;50.70;100595.77;106631;1270;22695;-74
2022/05/20 04:07:17;;;;;;;;;;;;;;;14.84;50.91;100599.95;106593;1269;22525;-73
2022/05/20 04:09:49;;;;;;;;;;;;;;;14.88;50.97;100598.08;106585;1270;26118;-73
2022/05/20 04:12:23;;;;;;;;;;;;;;;14.92;51.11;100603.61;106614;1269;22597;-74
2022/05/20 04:14:52;;;;;;;;;;;;;;;14.96;51.48;100611.42;106566;1269;22534;-73
2022/05/20 04:17:21;;;;;;;;;;;;;;;15.02;51.68;100615.20;106562;1270;22506;-73
2022/05/20 04:19:51;;;;;;;;;;;;;;;15.07;51.84;100617.57;106637;1268;25342;-74
2022/05/20 04:22:24;;;;;;;;;;;;;;;15.11;51.81;100616.95;106552;1271;22509;-75
2022/05/20 04:24:54;;;;;;;;;;;;;;;15.18;52.05;100628.09;106573;1270;24991;-73
2022/05/20 04:27:23;;;;;;;;;;;;;;;15.24;52.09;100636.86;106596;1270;25386;-73
2022/05/20 04:29:52;;;;;;;;;;;;;;;15.29;52.07;100631.89;106473;1270;22516;-75
2022/05/20 04:32:22;;;;;;;;;;;;;;;15.35;52.40;100628.34;106689;1269;25272;-77
2022/05/20 04:34:51;;;;;;;;;;;;;;;15.40;52.62;100629.40;106576;1269;24352;-74
2022/05/20 04:37:23;;;;;;;;;;;;;;;15.46;52.73;100629.41;106522;1270;22534;-76
2022/05/20 04:39:52;;;;;;;;;;;;;;;15.52;52.67;100634.14;106547;1271;23254;-74
2022/05/20 04:48:00;;;;;;;;;;;;;;;15.68;52.83;100638.05;106564;1271;22505;-73
2022/05/20 04:50:29;;;;;;;;;;;;;;;15.72;53.10;100641.91;108142;1268;22542;-74
2022/05/20 04:52:58;;;;;;;;;;;;;;;15.77;53.80;100649.52;107549;1268;26535;-75
2022/05/20 04:55:28;;;;;;;;;;;;;;;15.81;53.93;100646.81;106619;1270;26651;-74
2022/05/20 04:57:57;;;;;;;;;;;;;;;15.86;53.92;100646.38;106592;1270;22610;-73
2022/05/20 05:00:27;;;;;;;;;;;;;;;15.92;54.02;100650.54;106538;1271;22534;-73
2022/05/20 05:02:57;;;;;;;;;;;;;;;16.00;54.10;100654.88;106485;1269;22616;-73
2022/05/20 05:05:27;;;;;;;;;;;;;;;16.07;54.23;100651.98;106520;1269;22543;-73
2022/05/20 05:07:58;;;;;;;;;;;;;;;16.13;54.69;100656.05;106544;1271;26447;-72
2022/05/20 05:10:29;;;;;;;;;;;;;;;16.20;55.07;100654.53;106377;1271;22528;-74
2022/05/20 05:13:00;;;;;;;;;;;;;;;16.28;55.05;100654.97;106807;1269;22607;-72
2022/05/20 05:15:29;;;;;;;;;;;;;;;16.38;55.16;100660.16;106403;1269;25300;-72
2022/05/20 05:18:12;;;;;;;;;;;;;;;16.47;54.97;100656.70;106631;1271;24308;-73
2022/05/20 05:20:46;;;;;;;;;;;;;;;16.58;55.13;100661.66;106539;1270;22652;-72
2022/05/20 05:23:16;;;;;;;;;;;;;;;16.68;55.09;100665.98;106626;1269;22509;-73
2022/05/20 05:25:45;;;;;;;;;;;;;;;16.79;54.92;100663.94;106618;1268;22690;-73
2022/05/20 05:28:16;;;;;;;;;;;;;;;16.90;54.84;100665.98;106491;1271;22623;-72
2022/05/20 05:30:48;;;;;;;;;;;;;;;17.03;54.74;100663.88;106485;1269;25285;-73
2022/05/20 05:33:18;;;;;;;;;;;;;;;17.15;54.62;100663.05;106531;1270;25993;-73
2022/05/20 05:35:47;;;;;;;;;;;;;;;17.28;54.31;100666.05;106459;1269;22937;-73
2022/05/20 05:38:16;;;;;;;;;;;;;;;17.40;54.29;100665.73;106437;1271;22534;-73
2022/05/20 05:40:46;;;;;;;;;;;;;;;17.51;54.33;100666.24;106290;1271;22521;-73
2022/05/20 05:43:16;;;;;;;;;;;;;;;17.62;53.93;100668.16;106480;1271;22668;-73
2022/05/20 05:45:45;;;;;;;;;;;;;;;17.70;53.97;100668.91;106422;1270;25322;-73
2022/05/20 05:48:17;;;;;;;;;;;;;;;17.78;53.74;100673.40;106543;1271;22508;-73
2022/05/20 05:50:47;;;;;;;;;;;;;;;17.85;53.70;100676.63;106571;1271;25349;-72
2022/05/20 05:53:18;;;;;;;;;;;;;;;17.91;53.80;100681.22;106471;1271;22525;-73
2022/05/20 05:55:48;;;;;;;;;;;;;;;17.96;53.52;100682.79;106270;1271;26644;-73
2022/05/20 05:58:18;;;;;;;;;;;;;;;18.02;53.62;100678.96;106608;1271;22534;-72
2022/05/20 06:00:47;;;;;;;;;;;;;;;18.11;53.76;100676.98;106355;1271;23367;-73
2022/05/20 06:03:17;;;;;;;;;;;;;;;18.24;53.79;100678.18;106523;1268;23666;-73
2022/05/20 06:05:46;;;;;;;;;;;;;;;18.38;53.74;100678.69;106420;1270;22531;-73
2022/05/20 06:08:16;;;;;;;;;;;;;;;18.55;53.84;100674.65;106467;1270;22518;-73
2022/05/20 06:10:46;;;;;;;;;;;;;;;18.76;53.98;100675.89;106442;1271;24282;-73
2022/05/20 06:13:21;;;;;;;;;;;;;;;18.99;53.89;100675.81;106346;1271;22525;-76
2022/05/20 06:15:51;;;;;;;;;;;;;;;19.22;53.80;100669.68;106478;1269;25418;-75
2022/05/20 06:18:22;;;;;;;;;;;;;;;19.44;53.84;100668.31;106364;1271;25268;-75
2022/05/20 06:20:52;;;;;;;;;;;;;;;19.65;53.76;100662.67;106430;1271;22609;-75
2022/05/20 06:23:22;;;;;;;;;;;;;;;19.82;53.68;100658.88;106508;1271;24253;-76
2022/05/20 06:25:52;;;;;;;;;;;;;;;20.00;53.66;100660.97;106475;1271;22595;-75
2022/05/20 06:28:21;;;;;;;;;;;;;;;20.18;53.63;100664.77;106584;1271;22521;-75
2022/05/20 06:30:52;;;;;;;;;;;;;;;20.34;53.67;100665.74;106592;1270;24256;-75
2022/05/20 06:33:21;;;;;;;;;;;;;;;20.50;53.69;100668.92;106425;1271;25324;-75
2022/05/20 06:41:25;;;;;;;;;;;;;;;20.93;53.12;100669.89;106727;1268;25522;-75
2022/05/20 06:43:55;;;;;;;;;;;;;;;21.02;53.23;100669.57;106583;1268;22516;-75
2022/05/20 06:46:25;;;;;;;;;;;;;;;21.12;53.32;100669.30;106637;1268;25482;-75
2022/05/20 06:48:56;;;;;;;;;;;;;;;21.22;53.34;100661.17;106459;1268;24074;-75
2022/05/20 06:51:26;;;;;;;;;;;;;;;21.32;53.29;100663.73;106532;1268;26804;-75
2022/05/20 06:53:57;;;;;;;;;;;;;;;21.42;53.15;100665.20;106644;1268;22515;-75
2022/05/20 06:56:28;;;;;;;;;;;;;;;21.51;53.31;100663.10;106748;1268;22525;-75
2022/05/20 06:59:00;;;;;;;;;;;;;;;21.62;53.31;100665.13;106500;1268;22505;-75
2022/05/20 07:01:30;;;;;;;;;;;;;;;21.72;53.07;100663.11;106602;1268;22516;-75
2022/05/20 07:03:59;;;;;;;;;;;;;;;21.82;53.03;100663.46;106663;1268;23059;-75
2022/05/20 07:06:30;;;;;;;;;;;;;;;21.91;52.86;100669.64;106623;1268;22524;-76
2022/05/20 07:08:59;;;;;;;;;;;;;;;22.01;52.92;100668.91;106524;1269;22562;-75
2022/05/20 07:11:29;;;;;;;;;;;;;;;22.10;52.62;100669.08;106502;1268;22593;-75
2022/05/20 07:13:59;;;;;;;;;;;;;;;22.17;52.74;100669.66;106524;1268;22512;-75
2022/05/20 07:16:30;;;;;;;;;;;;;;;22.26;52.61;100663.05;106429;1268;23073;-75
2022/05/20 07:18:59;;;;;;;;;;;;;;;22.33;52.22;100668.64;106390;1271;22665;-74
2022/05/20 07:21:28;;;;;;;;;;;;;;;22.36;52.09;100666.67;106600;1270;23393;-75
2022/05/20 07:23:58;;;;;;;;;;;;;;;22.41;51.85;100661.52;106649;1268;22506;-75
2022/05/20 07:26:27;;;;;;;;;;;;;;;22.46;51.78;100663.67;106642;1268;22527;-74
2022/05/20 07:28:57;;;;;;;;;;;;;;;22.51;51.61;100658.54;106608;1268;24220;-75
2022/05/20 07:31:26;;;;;;;;;;;;;;;22.55;51.57;100665.44;106661;1268;25338;-75
2022/05/20 07:33:55;;;;;;;;;;;;;;;22.60;51.64;100668.67;106580;1268;25185;-75
2022/05/20 07:36:25;;;;;;;;;;;;;;;22.68;51.50;100669.05;106538;1268;25181;-75
2022/05/20 07:38:54;;;;;;;;;;;;;;;22.76;51.18;100672.17;106596;1268;25209;-75
2022/05/20 07:41:24;;;;;;;;;;;;;;;22.81;50.97;100674.73;106578;1268;22509;-75
2022/05/20 07:43:54;;;;;;;;;;;;;;;22.85;50.67;100671.63;106519;1268;24316;-75
2022/05/20 07:46:23;;;;;;;;;;;;;;;22.92;50.83;100674.53;106660;1268;22510;-74
2022/05/20 07:48:52;;;;;;;;;;;;;;;23.01;50.88;100673.22;106650;1268;23059;-75
2022/05/20 07:51:23;;;;;;;;;;;;;;;23.10;50.36;100669.91;106639;1268;22599;-75
2022/05/20 07:53:56;;;;;;;;;;;;;;;23.17;50.35;100670.94;106660;1268;24265;-76
2022/05/20 07:56:27;;;;;;;;;;;;;;;23.24;49.92;100679.20;106590;1268;22534;-75
2022/05/20 07:59:00;;;;;;;;;;;;;;;23.30;49.83;100677.67;106690;1268;22607;-75
2022/05/20 08:01:31;;;;;;;;;;;;;;;23.36;49.82;100676.32;106650;1268;25212;-75
2022/05/20 08:06:52;;;;;;;;;;;;;;;23.45;49.46;100680.34;106557;1268;22605;-75
2022/05/20 08:09:21;;;;;;;;;;;;;;;23.49;49.39;100682.90;106636;1268;22534;-75
2022/05/20 08:11:51;;;;;;;;;;;;;;;23.56;49.45;100684.64;106610;1268;24294;-75
2022/05/20 08:14:20;;;;;;;;;;;;;;;23.64;49.27;100684.42;106637;1268;22662;-75
2022/05/20 08:16:50;;;;;;;;;;;;;;;23.69;49.22;100687.19;106556;1268;22518;-75
2022/05/20 08:19:19;;;;;;;;;;;;;;;23.72;49.03;100683.98;106579;1268;22582;-75
2022/05/20 08:21:50;;;;;;;;;;;;;;;23.74;48.79;100681.45;106606;1268;23815;-75
2022/05/20 08:24:19;;;;;;;;;;;;;;;23.73;48.76;100682.58;106669;1268;22684;-75
2022/05/20 08:26:50;;;;;;;;;;;;;;;23.77;48.99;100682.73;106654;1268;25401;-75
2022/05/20 08:29:19;;;;;;;;;;;;;;;23.84;49.02;100681.13;106750;1268;22538;-75
2022/05/20 08:31:49;;;;;;;;;;;;;;;23.92;48.84;100681.70;106559;1268;24370;-75
2022/05/20 08:34:19;;;;;;;;;;;;;;;23.98;48.72;100683.73;106687;1268;25294;-76
2022/05/20 08:36:49;;;;;;;;;;;;;;;23.99;48.49;100680.11;106694;1268;22542;-76
2022/05/20 08:39:19;;;;;;;;;;;;;;;24.01;48.83;100681.20;106587;1268;23263;-76
2022/05/20 08:41:49;;;;;;;;;;;;;;;24.11;48.59;100675.60;106626;1268;22514;-75
2022/05/20 08:44:21;;;;;;;;;;;;;;;24.16;48.56;100679.70;106651;1267;22512;-75
2022/05/20 08:46:50;;;;;;;;;;;;;;;24.22;48.53;100677.28;106548;1268;25405;-76
2022/05/20 08:49:21;;;;;;;;;;;;;;;24.28;48.41;100669.59;106556;1268;24320;-76
2022/05/20 08:51:52;;;;;;;;;;;;;;;24.39;48.54;100670.12;106603;1268;25359;-76
2022/05/20 08:54:21;;;;;;;;;;;;;;;24.50;48.21;100673.27;106663;1268;22506;-76
2022/05/20 08:56:51;;;;;;;;;;;;;;;24.52;47.85;100673.97;106546;1268;23120;-76
2022/05/20 08:59:22;;;;;;;;;;;;;;;24.50;47.84;100671.08;106592;1268;23921;-75
2022/05/20 09:01:52;;;;;;;;;;;;;;;24.54;47.96;100672.83;106586;1268;22527;-75
2022/05/20 09:04:24;;;;;;;;;;;;;;;24.58;47.81;100665.15;106646;1268;22512;-76
2022/05/20 09:06:59;;;;;;;;;;;;;;;24.64;47.65;100666.54;106668;1268;25274;-75
2022/05/20 09:09:29;;;;;;;;;;;;;;;24.69;47.68;100663.02;106809;1268;23042;-75
2022/05/20 09:11:58;;;;;;;;;;;;;;;24.73;47.76;100659.73;106627;1268;25223;-75
2022/05/20 09:17:18;;;;;;;;;;;;;;;24.89;47.53;100658.96;106735;1268;22664;-76
2022/05/20 09:19:56;;;;;;;;;;;;;;;24.94;47.33;100662.05;106491;1268;25212;-75
2022/05/20 09:22:31;;;;;;;;;;;;;;;24.95;47.19;100656.06;106590;1268;24277;-76
2022/05/20 09:25:01;;;;;;;;;;;;;;;24.98;47.11;100648.52;106506;1268;25551;-75
2022/05/20 09:27:32;;;;;;;;;;;;;;;24.97;47.42;100642.05;106804;1268;24425;-75
2022/05/20 09:30:05;;;;;;;;;;;;;;;25.07;47.57;100642.17;106709;1268;23926;-77
2022/05/20 09:32:38;;;;;;;;;;;;;;;25.13;47.00;100641.11;106621;1268;22980;-76
2022/05/20 09:35:11;;;;;;;;;;;;;;;25.20;47.21;100638.02;106530;1268;22610;-76
2022/05/20 09:37:41;;;;;;;;;;;;;;;25.28;46.71;100633.67;106631;1268;22617;-76
2022/05/20 09:40:22;;;;;;;;;;;;;;;25.29;46.76;100626.83;106840;1257;100248;-69
2022/05/20 09:42:59;;;;;;;;;;;;;;;25.38;46.39;100635.84;106275;1268;22578;-68
2022/05/20 09:45:29;;;;;;;;;;;;;;;25.45;46.33;100635.33;106343;1268;22533;-70
2022/05/20 09:47:59;;;;;;;;;;;;;;;25.48;46.01;100629.45;106028;1269;22589;-69
2022/05/20 09:50:31;;;;;;;;;;;;;;;25.49;46.07;100627.86;106346;1270;22601;-69
2022/05/20 09:53:02;;;;;;;;;;;;;;;25.53;45.38;100624.04;106404;1271;22612;-68
2022/05/20 09:55:36;;;;;;;;;;;;;;;25.55;44.66;100617.39;106371;1270;22616;-68
2022/05/20 09:58:13;;;;;;;;;;;;;;;25.57;44.73;100615.71;106233;1271;22545;-70
2022/05/20 10:00:47;;;;;;;;;;;;;;;25.59;44.49;100628.32;106143;1271;22506;-69
2022/05/20 10:03:20;;;;;;;;;;;;;;;25.59;44.34;100624.93;106232;1271;25373;-69
2022/05/20 10:05:54;;;;;;;;;;;;;;;25.60;44.71;100619.66;106270;1270;22528;-70
2022/05/20 10:08:26;;;;;;;;;;;;;;;25.63;44.24;100623.73;106180;1269;22532;-70
2022/05/20 10:11:02;;;;;;;;;;;;;;;25.65;44.39;100618.66;105986;1271;22614;-69
2022/05/20 10:13:39;;;;;;;;;;;;;;;25.68;44.47;100616.83;106567;1270;22525;-70
2022/05/20 10:16:12;;;;;;;;;;;;;;;25.74;44.49;100608.95;106148;1271;23047;-69
2022/05/20 10:18:48;;;;;;;;;;;;;;;25.79;44.47;100601.35;106226;1271;22839;-69
2022/05/20 10:21:21;;;;;;;;;;;;;;;25.87;44.67;100603.69;106193;1270;22592;-70
2022/05/20 10:23:55;;;;;;;;;;;;;;;25.95;44.48;100605.17;106285;1270;23261;-69
2022/05/20 10:26:32;;;;;;;;;;;;;;;26.01;44.26;100605.38;106157;1271;26592;-69
2022/05/20 10:34:42;;;;;;;;;;;;;;;26.15;44.04;100602.91;106659;1269;22736;-69
2022/05/20 10:37:16;;;;;;;;;;;;;;;26.25;43.76;100601.14;106468;1271;22567;-69
2022/05/20 10:39:57;;;;;;;;;;;;;;;26.31;43.88;100594.57;106694;1268;22720;-69
2022/05/20 10:42:41;;;;;;;;;;;;;;;26.35;43.52;100590.48;106437;1270;22626;-69
2022/05/20 10:51:05;;;;;;;;;;;;;;;26.46;43.27;100585.55;106658;1268;23094;-69
2022/05/20 10:53:42;;;;;;;;;;;;;;;26.48;43.67;100585.04;106757;1268;22513;-69
2022/05/20 10:56:25;;;;;;;;;;;;;;;26.52;43.55;100586.20;106717;1268;22567;-70
2022/05/20 10:59:01;;;;;;;;;;;;;;;26.56;43.45;100586.10;106733;1268;24188;-70
2022/05/20 11:01:40;;;;;;;;;;;;;;;26.59;43.77;100589.16;106671;1268;22741;-69
2022/05/20 11:04:29;;;;;;;;;;;;;;;26.61;42.97;100581.98;106720;1268;26599;-70
2022/05/20 11:07:10;;;;;;;;;;;;;;;26.53;42.90;100577.30;106717;1269;24224;-70
2022/05/20 11:09:47;;;;;;;;;;;;;;;26.51;42.77;100575.25;106703;1268;22702;-70
2022/05/20 11:12:21;;;;;;;;;;;;;;;26.48;42.69;100579.29;106749;1268;27486;-70
2022/05/20 11:15:11;;;;;;;;;;;;;;;26.47;42.79;100578.77;106675;1268;25422;-69
2022/05/20 11:17:54;;;;;;;;;;;;;;;26.53;42.68;100574.70;106862;1268;22526;-71
2022/05/20 11:20:33;;;;;;;;;;;;;;;26.59;42.70;100572.64;106746;1268;23196;-70
2022/05/20 11:23:10;;;;;;;;;;;;;;;26.64;42.75;100566.64;106691;1268;22993;-70
2022/05/20 11:25:47;;;;;;;;;;;;;;;26.66;42.32;100569.57;106745;1268;25394;-69
2022/05/20 11:28:25;;;;;;;;;;;;;;;26.67;42.33;100566.16;106803;1268;26706;-70
2022/05/20 11:31:01;;;;;;;;;;;;;;;26.70;42.52;100569.05;106628;1270;24279;-70
2022/05/20 11:33:54;;;;;;;;;;;;;;;26.76;42.40;100570.86;106576;1269;24037;-69
2022/05/20 11:36:35;;;;;;;;;;;;;;;26.80;42.12;100568.98;106880;1268;22551;-71
2022/05/20 11:39:26;;;;;;;;;;;;;;;26.83;41.97;100562.34;106669;1270;24235;-70
2022/05/20 11:42:05;;;;;;;;;;;;;;;26.88;41.95;100567.09;106689;1268;25368;-70
2022/05/20 11:44:55;;;;;;;;;;;;;;;26.85;41.91;100559.85;106658;1268;26507;-69
2022/05/20 11:47:40;;;;;;;;;;;;;;;26.77;41.54;100553.31;106808;1268;22519;-70
2022/05/20 11:50:17;;;;;;;;;;;;;;;26.75;41.59;100558.88;106671;1265;26296;-70
2022/05/20 11:52:52;;;;;;;;;;;;;;;26.74;41.82;100552.50;106747;1268;26792;-70
2022/05/20 11:55:25;;;;;;;;;;;;;;;26.77;41.88;100546.90;106733;1268;22530;-71
2022/05/20 11:57:59;;;;;;;;;;;;;;;26.81;41.99;100544.57;106793;1268;26550;-71
2022/05/20 12:00:29;;;;;;;;;;;;;;;26.81;42.00;100546.86;106902;1268;24082;-70
2022/05/20 12:03:02;;;;;;;;;;;;;;;26.83;42.03;100545.47;106651;1268;22521;-71
2022/05/20 12:05:33;;;;;;;;;;;;;;;26.84;41.56;100542.23;106725;1268;23462;-70
2022/05/20 12:08:03;;;;;;;;;;;;;;;26.86;41.54;100541.20;106692;1268;25404;-70
2022/05/20 12:10:51;;;;;;;;;;;;;;;26.88;42.17;100540.66;106706;1268;22525;-70
2022/05/20 12:13:22;;;;;;;;;;;;;;;26.91;41.88;100543.39;106860;1268;22556;-71
2022/05/20 12:16:10;;;;;;;;;;;;;;;26.89;42.05;100536.40;106974;1268;24240;-70
2022/05/20 12:24:35;;;;;;;;;;;;;;;27.09;41.70;100532.33;106646;1269;25604;-71
2022/05/20 12:27:10;;;;;;;;;;;;;;;27.10;41.38;100524.10;106637;1269;25418;-70
2022/05/20 12:29:56;;;;;;;;;;;;;;;27.09;41.42;100520.48;106788;1269;23727;-70
2022/05/20 12:32:39;;;;;;;;;;;;;;;27.09;41.07;100521.13;106878;1268;22537;-71
2022/05/20 12:35:10;;;;;;;;;;;;;;;27.04;40.85;100514.60;106659;1269;22769;-71
2022/05/20 12:37:57;;;;;;;;;;;;;;;27.00;40.95;100508.95;106592;1269;22537;-70
2022/05/20 12:40:44;;;;;;;;;;;;;;;27.03;41.09;100505.03;106518;1269;22528;-70
2022/05/20 12:43:14;;;;;;;;;;;;;;;27.04;40.72;100504.70;106385;1269;22589;-69
2022/05/20 12:45:48;;;;;;;;;;;;;;;27.01;40.61;100501.15;106444;1270;24327;-70
2022/05/20 12:48:18;;;;;;;;;;;;;;;26.98;40.58;100495.42;106519;1271;25404;-70
2022/05/20 12:50:59;;;;;;;;;;;;;;;26.94;40.73;100493.27;106613;1269;22565;-70
2022/05/20 12:53:33;;;;;;;;;;;;;;;26.89;41.03;100488.09;106718;1269;22512;-69
2022/05/20 12:56:03;;;;;;;;;;;;;;;26.90;41.13;100484.63;106446;1269;25512;-70
2022/05/20 12:58:34;;;;;;;;;;;;;;;26.91;41.15;100480.50;106572;1269;25299;-70
2022/05/20 13:01:07;;;;;;;;;;;;;;;26.91;41.15;100476.95;106610;1269;22531;-70
2022/05/20 13:03:38;;;;;;;;;;;;;;;26.90;40.77;100479.14;106804;1268;22580;-71
2022/05/20 13:06:14;;;;;;;;;;;;;;;26.90;41.24;100479.30;106616;1269;22553;-70
2022/05/20 13:08:46;;;;;;;;;;;;;;;26.87;40.89;100472.27;106604;1269;25241;-70
2022/05/20 13:11:17;;;;;;;;;;;;;;;26.83;41.23;100466.84;106643;1268;23867;-71
2022/05/20 13:13:50;;;;;;;;;;;;;;;26.86;41.39;100459.65;106648;1269;22559;-70
2022/05/20 13:16:23;;;;;;;;;;;;;;;26.92;41.27;100459.45;106610;1269;22534;-70
2022/05/20 13:19:00;;;;;;;;;;;;;;;26.96;41.25;100455.73;106766;1269;22534;-70
2022/05/20 13:21:32;;;;;;;;;;;;;;;27.00;41.43;100458.09;106764;1270;25628;-70
2022/05/20 13:24:12;;;;;;;;;;;;;;;27.03;41.32;100452.02;106600;1270;22458;-70
2022/05/20 13:26:42;;;;;;;;;;;;;;;27.02;41.23;100442.91;106641;1271;22460;-70
2022/05/20 13:29:12;;;;;;;;;;;;;;;27.05;41.40;100436.39;106727;1269;23088;-70
2022/05/20 13:31:42;;;;;;;;;;;;;;;27.08;41.15;100436.73;106645;1269;22535;-71
2022/05/20 13:34:12;;;;;;;;;;;;;;;27.10;41.05;100434.14;106629;1269;22528;-69